Time;durP1;ratioP1;P1;durP2;ratioP2;P2;SDS_P1;SDS_P2;PMS_P1;PMS_P2;Temp;Humidity;BMP_temperature;BMP_pressure;BME280_temperature;BME280_humidity;BME280_pressure;Samples;Min_cycle;Max_cycle;Signal;HPM_P1;HPM_P2
2023/01/22 00:08:55;;;;;;;42.55;17.83;;;;;;;0.79;79.80;100882.31;30977469;28;97616;-74
2023/01/22 00:23:56;;;;;;;46.13;17.95;;;;;;;0.83;80.10;100883.81;30975197;28;96516;-72
2023/01/22 00:38:57;;;;;;;34.25;16.67;;;;;;;0.88;80.32;100913.25;30973997;28;100252;-76
2023/01/22 00:53:57;;;;;;;44.35;18.83;;;;;;;0.91;79.87;100920.94;30974206;28;97551;-77
2023/01/22 01:08:58;;;;;;;40.70;17.52;;;;;;;0.81;80.19;100925.03;30972718;28;97412;-78
2023/01/22 01:23:59;;;;;;;50.17;18.58;;;;;;;0.74;79.56;100952.53;30976172;28;96668;-75
2023/01/22 01:39:02;;;;;;;39.20;18.20;;;;;;;0.67;80.01;100952.06;30991890;28;96677;-75
2023/01/22 01:54:03;;;;;;;32.60;16.73;;;;;;;0.66;79.96;100966.13;30989904;28;96759;-76
2023/01/22 02:09:04;;;;;;;39.05;16.17;;;;;;;0.62;80.06;100970.69;30989235;28;96842;-77
2023/01/22 02:24:11;;;;;;;35.80;16.15;;;;;;;0.56;79.66;100978.91;30988206;28;96650;-78
2023/01/22 02:39:11;;;;;;;40.40;17.95;;;;;;;0.52;80.12;100995.75;30987302;28;96988;-78
2023/01/22 02:54:11;;;;;;;39.97;17.17;;;;;;;0.49;79.94;100993.25;30985878;28;97123;-78
2023/01/22 03:09:14;;;;;;;40.60;18.50;;;;;;;0.42;79.54;100994.53;30984414;28;96678;-78
2023/01/22 03:24:15;;;;;;;38.95;18.35;;;;;;;0.40;79.99;101005.13;30981448;28;96659;-78
2023/01/22 03:39:15;;;;;;;42.40;18.52;;;;;;;0.31;80.22;101011.69;30982113;28;96752;-77
2023/01/22 03:54:16;;;;;;;39.10;18.13;;;;;;;0.30;80.24;101020.50;30978786;28;97361;-77
2023/01/22 04:09:16;;;;;;;39.63;17.33;;;;;;;0.27;80.42;101023.28;30976209;28;96618;-77
2023/01/22 04:24:17;;;;;;;37.78;17.60;;;;;;;0.38;80.87;101040.22;30977095;28;97520;-77
2023/01/22 04:39:17;;;;;;;37.05;18.40;;;;;;;0.32;80.24;101039.59;30976092;28;96645;-77
2023/01/22 04:54:17;;;;;;;33.00;16.23;;;;;;;0.43;80.43;101033.78;30973499;28;96802;-77
2023/01/22 05:09:18;;;;;;;33.97;14.80;;;;;;;0.46;80.33;101058.97;30992789;28;97410;-78
2023/01/22 05:24:19;;;;;;;25.45;12.90;;;;;;;0.45;80.64;101075.63;30993514;28;97174;-78
2023/01/22 05:39:19;;;;;;;25.55;12.75;;;;;;;0.50;80.27;101105.06;30992570;28;96885;-77
2023/01/22 05:54:20;;;;;;;16.20;9.43;;;;;;;0.51;80.05;101104.16;30988886;28;96702;-77
2023/01/22 06:09:20;;;;;;;14.27;6.97;;;;;;;0.56;79.81;101107.38;30986713;28;97429;-78
2023/01/22 06:24:21;;;;;;;13.50;7.50;;;;;;;0.59;78.95;101107.22;30986506;28;96709;-76
2023/01/22 06:39:21;;;;;;;10.82;6.50;;;;;;;0.49;78.70;101126.97;30985307;28;96606;-77
2023/01/22 06:54:21;;;;;;;12.80;6.47;;;;;;;0.32;78.62;101141.81;30982033;28;96843;-78
2023/01/22 07:09:22;;;;;;;15.25;7.70;;;;;;;0.42;78.94;101162.31;30982108;28;97238;-78
2023/01/22 07:24:22;;;;;;;14.27;8.73;;;;;;;0.50;78.43;101175.88;30979448;28;97144;-75
2023/01/22 07:39:23;;;;;;;20.30;10.32;;;;;;;0.61;78.90;101184.00;30979319;28;97066;-77
2023/01/22 07:54:23;;;;;;;27.10;12.60;;;;;;;0.62;78.62;101217.19;30976833;28;96767;-74
2023/01/22 08:09:24;;;;;;;24.27;13.55;;;;;;;0.70;78.66;101203.66;30975966;28;96795;-77
2023/01/22 08:24:24;;;;;;;30.13;15.02;;;;;;;0.87;78.86;101213.25;30974022;28;96942;-77
2023/01/22 08:39:25;;;;;;;26.50;13.90;;;;;;;0.88;78.86;101224.59;30985982;28;96603;-77
2023/01/22 08:54:25;;;;;;;22.80;11.63;;;;;;;1.15;79.08;101254.59;30992113;28;96783;-77
2023/01/22 09:09:26;;;;;;;25.50;13.27;;;;;;;1.14;78.42;101247.66;30991849;28;96827;-77
2023/01/22 09:24:26;;;;;;;27.70;12.23;;;;;;;1.37;78.59;101265.69;30991656;28;97474;-77
2023/01/22 09:39:27;;;;;;;27.77;13.38;;;;;;;1.48;78.43;101268.59;30990366;28;96664;-75
2023/01/22 09:54:28;;;;;;;23.70;12.10;;;;;;;1.51;78.27;101274.50;30988428;28;96736;-77
2023/01/22 10:09:31;;;;;;;23.88;12.10;;;;;;;1.42;78.18;101268.91;30987505;28;97453;-76
2023/01/22 10:24:31;;;;;;;24.55;11.50;;;;;;;1.54;77.85;101267.41;30984974;28;96611;-75
2023/01/22 10:39:39;;;;;;;21.70;10.80;;;;;;;1.43;77.60;101271.47;30984026;28;96647;-77
2023/01/22 10:54:42;;;;;;;15.93;8.32;;;;;;;1.28;78.11;101277.56;30981304;28;96575;-76
2023/01/22 11:09:51;;;;;;;19.10;11.10;;;;;;;1.20;78.10;101280.59;30980310;28;97111;-77
2023/01/22 11:24:52;;;;;;;17.27;8.52;;;;;;;1.29;78.61;101293.22;30979962;28;96821;-71
2023/01/22 11:39:56;;;;;;;15.90;8.80;;;;;;;1.28;78.33;101275.78;30978399;28;97503;-76
2023/01/22 11:55:16;;;;;;;14.70;8.17;;;;;;;1.18;77.79;101253.59;30976286;28;96951;-76
2023/01/22 12:10:47;;;;;;;16.73;9.10;;;;;;;1.33;78.56;101251.91;30975122;28;96688;-76
2023/01/22 12:26:02;;;;;;;20.48;9.77;;;;;;;1.49;78.09;101244.00;30974416;28;97323;-73
2023/01/22 12:41:05;;;;;;;18.90;11.32;;;;;;;1.42;78.22;101242.66;30973265;28;96897;-77
2023/01/22 12:56:08;;;;;;;19.83;11.05;;;;;;;1.43;78.24;101265.38;30971912;28;96637;-74
2023/01/22 13:11:10;;;;;;;24.98;12.32;;;;;;;1.55;78.13;101277.00;30970394;28;97551;-76
2023/01/22 13:26:20;;;;;;;28.88;14.13;;;;;;;1.63;78.18;101277.41;30982741;28;96695;-73
2023/01/22 13:41:43;;;;;;;26.45;12.98;;;;;;;1.95;78.13;101277.34;30989828;28;97553;-74
2023/01/22 13:56:44;;;;;;;27.27;11.45;;;;;;;1.93;78.14;101274.81;30988616;28;97280;-77
2023/01/22 14:11:44;;;;;;;20.17;11.30;;;;;;;1.80;78.08;101276.44;30986876;28;97040;-72
2023/01/22 14:26:45;;;;;;;20.70;12.50;;;;;;;1.66;78.19;101303.50;30985101;28;97281;-75
2023/01/22 14:41:48;;;;;;;24.52;12.32;;;;;;;1.60;78.31;101322.19;30982231;28;96780;-76
2023/01/22 14:56:49;;;;;;;21.00;12.13;;;;;;;1.49;78.05;101328.91;30981310;28;97586;-76
2023/01/22 15:11:49;;;;;;;20.17;11.18;;;;;;;1.45;78.51;101337.03;30981254;28;96844;-71
2023/01/22 15:26:49;;;;;;;24.65;12.43;;;;;;;1.33;78.75;101360.38;30979406;28;96700;-75
2023/01/22 15:41:50;;;;;;;21.90;11.98;;;;;;;1.16;79.00;101379.66;30977394;28;96705;-74
2023/01/22 15:56:50;;;;;;;21.83;11.57;;;;;;;1.12;79.41;101395.63;30976807;28;97468;-73
2023/01/22 16:11:51;;;;;;;25.10;13.00;;;;;;;1.09;79.58;101403.69;30976074;28;96634;-76
2023/01/22 16:26:52;;;;;;;26.85;14.55;;;;;;;0.99;79.61;101406.75;30975068;28;96660;-71
2023/01/22 16:41:52;;;;;;;31.15;15.55;;;;;;;0.83;79.67;101426.84;30973891;28;97366;-74
2023/01/22 16:56:57;;;;;;;30.67;15.02;;;;;;;0.77;79.42;101440.28;30979542;28;97135;-76
2023/01/22 17:12:00;;;;;;;26.27;14.45;;;;;;;0.61;79.83;101450.66;30992588;28;98097;-71
2023/01/22 17:27:03;;;;;;;32.67;15.40;;;;;;;0.48;79.84;101455.66;30991702;28;96765;-69
2023/01/22 17:42:04;;;;;;;25.50;13.50;;;;;;;0.50;80.07;101493.13;30990136;28;97047;-68
2023/01/22 17:57:05;;;;;;;22.33;13.15;;;;;;;0.59;80.24;101500.56;30988443;28;96831;-70
2023/01/22 18:12:05;;;;;;;28.10;14.45;;;;;;;0.63;79.94;101501.25;30985273;28;97706;-70
2023/01/22 18:27:06;;;;;;;25.40;12.32;;;;;;;0.63;80.19;101503.88;30878441;28;97172;-75
2023/01/22 18:42:06;;;;;;;30.38;16.20;;;;;;;0.56;80.17;101521.69;30852123;28;96754;-83
2023/01/22 18:57:07;;;;;;;35.65;15.90;;;;;;;0.69;80.49;101545.56;30851528;28;97383;-76
2023/01/22 19:12:10;;;;;;;30.73;14.43;;;;;;;0.75;80.42;101552.28;30848164;28;97604;-65
2023/01/22 19:27:11;;;;;;;30.60;15.63;;;;;;;0.77;80.34;101581.94;30846835;28;96748;-77
2023/01/22 19:42:12;;;;;;;32.42;16.00;;;;;;;0.80;80.41;101593.09;30849669;28;97143;-74
2023/01/22 19:57:14;;;;;;;31.13;15.13;;;;;;;0.89;80.59;101602.34;30852090;28;97376;-78
2023/01/22 20:12:15;;;;;;;32.50;16.70;;;;;;;0.91;80.84;101605.72;30842635;28;96770;-82
2023/01/22 20:27:15;;;;;;;29.35;13.60;;;;;;;0.88;80.60;101612.91;30792485;28;99397;-73
2023/01/22 20:42:16;;;;;;;32.75;15.77;;;;;;;1.03;80.89;101621.84;30883321;28;96775;-79
2023/01/22 20:57:16;;;;;;;31.33;16.40;;;;;;;1.06;81.02;101624.28;30974394;28;96731;-78
2023/01/22 21:12:17;;;;;;;32.55;16.88;;;;;;;1.09;81.01;101630.22;30972753;28;96716;-75
2023/01/22 21:27:17;;;;;;;30.42;15.00;;;;;;;1.11;81.01;101648.56;30971464;28;96849;-76
2023/01/22 21:57:37;;;;;;;30.33;14.00;;;;;;;1.23;80.71;101668.09;30988830;28;96869;-77
2023/01/22 22:12:38;;;;;;;27.55;14.93;;;;;;;1.25;80.55;101672.34;30987936;28;96676;-76
2023/01/22 22:27:38;;;;;;;35.22;15.80;;;;;;;1.22;80.90;101704.00;30989261;28;96591;-76
2023/01/22 22:42:39;;;;;;;33.22;15.75;;;;;;;1.28;81.30;101719.47;30987332;28;96664;-73
2023/01/22 22:57:39;;;;;;;38.67;16.63;;;;;;;1.30;81.18;101748.25;30985774;28;96655;-72
2023/01/22 23:12:40;;;;;;;34.67;15.80;;;;;;;1.33;80.96;101769.16;30984025;28;96691;-77
2023/01/22 23:27:40;;;;;;;36.20;15.68;;;;;;;1.33;80.68;101761.28;30983834;28;96762;-77
2023/01/22 23:42:40;;;;;;;30.75;15.93;;;;;;;1.24;80.70;101753.81;30982474;28;97292;-77
2023/01/22 23:57:41;;;;;;;35.03;16.35;;;;;;;1.13;81.13;101767.44;30981270;28;97076;-67
